sensor_id;sensor_type;location;lat;lon;timestamp;temperature;humidity
78463;SHT31;67756;51.982;5.648;2024-01-15T00:01:44;4.7;73.4
78463;SHT31;67756;51.982;5.648;2024-01-15T00:04:12;4.7;73.2
78463;SHT31;67756;51.982;5.648;2024-01-15T00:06:41;4.7;73.7
78463;SHT31;67756;51.982;5.648;2024-01-15T00:09:10;4.7;73.6
78463;SHT31;67756;51.982;5.648;2024-01-15T00:11:40;4.7;73.6
78463;SHT31;67756;51.982;5.648;2024-01-15T00:14:09;4.7;73.3
78463;SHT31;67756;51.982;5.648;2024-01-15T00:16:40;4.7;73.0
78463;SHT31;67756;51.982;5.648;2024-01-15T00:19:09;4.7;73.9
78463;SHT31;67756;51.982;5.648;2024-01-15T00:21:37;4.7;73.1
78463;SHT31;67756;51.982;5.648;2024-01-15T00:24:06;4.7;72.5
78463;SHT31;67756;51.982;5.648;2024-01-15T00:26:34;4.7;72.3
78463;SHT31;67756;51.982;5.648;2024-01-15T00:29:03;4.7;72.4
78463;SHT31;67756;51.982;5.648;2024-01-15T00:31:34;4.7;72.4
78463;SHT31;67756;51.982;5.648;2024-01-15T00:34:03;4.7;72.2
78463;SHT31;67756;51.982;5.648;2024-01-15T00:36:31;4.7;72.1
78463;SHT31;67756;51.982;5.648;2024-01-15T00:39:03;4.8;72.3
78463;SHT31;67756;51.982;5.648;2024-01-15T00:41:34;4.8;72.1
78463;SHT31;67756;51.982;5.648;2024-01-15T00:44:06;4.9;71.6
78463;SHT31;67756;51.982;5.648;2024-01-15T00:46:53;5.0;71.1
78463;SHT31;67756;51.982;5.648;2024-01-15T00:49:21;5.1;70.9
78463;SHT31;67756;51.982;5.648;2024-01-15T00:51:54;5.1;70.2
78463;SHT31;67756;51.982;5.648;2024-01-15T00:54:24;5.2;70.1
78463;SHT31;67756;51.982;5.648;2024-01-15T00:56:54;5.2;69.6
78463;SHT31;67756;51.982;5.648;2024-01-15T00:59:23;5.3;69.1
78463;SHT31;67756;51.982;5.648;2024-01-15T01:01:51;5.3;68.8
78463;SHT31;67756;51.982;5.648;2024-01-15T01:04:21;5.3;69.7
78463;SHT31;67756;51.982;5.648;2024-01-15T01:06:50;5.3;69.1
78463;SHT31;67756;51.982;5.648;2024-01-15T01:09:19;5.3;68.5
78463;SHT31;67756;51.982;5.648;2024-01-15T01:11:47;5.3;68.2
78463;SHT31;67756;51.982;5.648;2024-01-15T01:14:16;5.3;68.0
78463;SHT31;67756;51.982;5.648;2024-01-15T01:16:44;5.3;68.6
78463;SHT31;67756;51.982;5.648;2024-01-15T01:19:13;5.2;68.7
78463;SHT31;67756;51.982;5.648;2024-01-15T01:21:41;5.2;68.9
78463;SHT31;67756;51.982;5.648;2024-01-15T01:24:10;5.2;69.2
78463;SHT31;67756;51.982;5.648;2024-01-15T01:26:39;5.2;69.4
78463;SHT31;67756;51.982;5.648;2024-01-15T01:29:08;5.2;69.2
78463;SHT31;67756;51.982;5.648;2024-01-15T01:31:36;5.2;69.0
78463;SHT31;67756;51.982;5.648;2024-01-15T01:34:13;5.2;68.7
78463;SHT31;67756;51.982;5.648;2024-01-15T01:36:44;5.2;68.5
78463;SHT31;67756;51.982;5.648;2024-01-15T01:39:14;5.2;68.0
78463;SHT31;67756;51.982;5.648;2024-01-15T01:41:43;5.2;67.7
78463;SHT31;67756;51.982;5.648;2024-01-15T01:44:11;5.1;67.4
78463;SHT31;67756;51.982;5.648;2024-01-15T01:46:40;5.1;67.9
78463;SHT31;67756;51.982;5.648;2024-01-15T01:49:09;5.0;67.9
78463;SHT31;67756;51.982;5.648;2024-01-15T01:51:38;4.9;68.2
78463;SHT31;67756;51.982;5.648;2024-01-15T01:54:08;4.8;68.1
78463;SHT31;67756;51.982;5.648;2024-01-15T01:56:40;4.8;68.7
78463;SHT31;67756;51.982;5.648;2024-01-15T01:59:11;4.7;68.8
78463;SHT31;67756;51.982;5.648;2024-01-15T02:01:40;4.6;68.7
78463;SHT31;67756;51.982;5.648;2024-01-15T02:04:10;4.6;69.1
78463;SHT31;67756;51.982;5.648;2024-01-15T02:06:39;4.5;69.3
78463;SHT31;67756;51.982;5.648;2024-01-15T02:09:08;4.4;69.9
78463;SHT31;67756;51.982;5.648;2024-01-15T02:11:37;4.4;69.7
78463;SHT31;67756;51.982;5.648;2024-01-15T02:14:05;4.4;69.9
78463;SHT31;67756;51.982;5.648;2024-01-15T02:16:34;4.4;70.2
78463;SHT31;67756;51.982;5.648;2024-01-15T02:19:02;4.4;70.6
78463;SHT31;67756;51.982;5.648;2024-01-15T02:21:31;4.4;70.2
78463;SHT31;67756;51.982;5.648;2024-01-15T02:24:00;4.4;70.8
78463;SHT31;67756;51.982;5.648;2024-01-15T02:26:29;4.4;70.7
78463;SHT31;67756;51.982;5.648;2024-01-15T02:29:02;4.4;70.6
78463;SHT31;67756;51.982;5.648;2024-01-15T02:31:31;4.4;70.3
78463;SHT31;67756;51.982;5.648;2024-01-15T02:34:02;4.4;70.3
78463;SHT31;67756;51.982;5.648;2024-01-15T02:36:32;4.4;70.4
78463;SHT31;67756;51.982;5.648;2024-01-15T02:39:01;4.4;70.2
78463;SHT31;67756;51.982;5.648;2024-01-15T02:41:29;4.4;70.3
78463;SHT31;67756;51.982;5.648;2024-01-15T02:43:58;4.4;70.0
78463;SHT31;67756;51.982;5.648;2024-01-15T02:46:26;4.4;70.5
78463;SHT31;67756;51.982;5.648;2024-01-15T02:48:55;4.4;70.4
78463;SHT31;67756;51.982;5.648;2024-01-15T02:51:23;4.4;70.3
78463;SHT31;67756;51.982;5.648;2024-01-15T02:53:52;4.4;70.3
78463;SHT31;67756;51.982;5.648;2024-01-15T02:56:20;4.4;70.0
78463;SHT31;67756;51.982;5.648;2024-01-15T02:58:49;4.4;70.0
78463;SHT31;67756;51.982;5.648;2024-01-15T03:01:20;4.3;70.1
78463;SHT31;67756;51.982;5.648;2024-01-15T03:03:48;4.3;70.6
78463;SHT31;67756;51.982;5.648;2024-01-15T03:06:17;4.3;71.0
78463;SHT31;67756;51.982;5.648;2024-01-15T03:08:46;4.3;71.5
78463;SHT31;67756;51.982;5.648;2024-01-15T03:11:14;4.3;71.4
78463;SHT31;67756;51.982;5.648;2024-01-15T03:13:43;4.3;71.5
78463;SHT31;67756;51.982;5.648;2024-01-15T03:16:12;4.3;72.0
78463;SHT31;67756;51.982;5.648;2024-01-15T03:18:40;4.3;72.2
78463;SHT31;67756;51.982;5.648;2024-01-15T03:21:09;4.3;72.5
78463;SHT31;67756;51.982;5.648;2024-01-15T03:23:37;4.3;72.0
78463;SHT31;67756;51.982;5.648;2024-01-15T03:26:06;4.3;72.1
78463;SHT31;67756;51.982;5.648;2024-01-15T03:28:34;4.3;71.8
78463;SHT31;67756;51.982;5.648;2024-01-15T03:31:03;4.4;71.5
78463;SHT31;67756;51.982;5.648;2024-01-15T03:33:32;4.4;71.5
78463;SHT31;67756;51.982;5.648;2024-01-15T03:36:00;4.4;71.8
78463;SHT31;67756;51.982;5.648;2024-01-15T03:38:29;4.4;71.6
78463;SHT31;67756;51.982;5.648;2024-01-15T03:40:57;4.3;71.6
78463;SHT31;67756;51.982;5.648;2024-01-15T03:43:27;4.3;71.6
78463;SHT31;67756;51.982;5.648;2024-01-15T03:45:56;4.3;71.1
78463;SHT31;67756;51.982;5.648;2024-01-15T03:48:24;4.3;71.1
78463;SHT31;67756;51.982;5.648;2024-01-15T03:50:53;4.3;71.1
78463;SHT31;67756;51.982;5.648;2024-01-15T03:53:21;4.3;71.1
78463;SHT31;67756;51.982;5.648;2024-01-15T03:55:50;4.3;70.8
78463;SHT31;67756;51.982;5.648;2024-01-15T03:58:20;4.3;70.9
78463;SHT31;67756;51.982;5.648;2024-01-15T04:00:49;4.2;71.2
78463;SHT31;67756;51.982;5.648;2024-01-15T04:03:18;4.2;71.7
78463;SHT31;67756;51.982;5.648;2024-01-15T04:05:46;4.2;71.8
78463;SHT31;67756;51.982;5.648;2024-01-15T04:08:15;4.2;71.9
78463;SHT31;67756;51.982;5.648;2024-01-15T04:10:43;4.2;71.8
78463;SHT31;67756;51.982;5.648;2024-01-15T04:13:12;4.2;71.8
78463;SHT31;67756;51.982;5.648;2024-01-15T04:15:40;4.3;72.1
78463;SHT31;67756;51.982;5.648;2024-01-15T04:18:09;4.3;72.1
78463;SHT31;67756;51.982;5.648;2024-01-15T04:20:38;4.3;72.1
78463;SHT31;67756;51.982;5.648;2024-01-15T04:23:06;4.4;72.3
78463;SHT31;67756;51.982;5.648;2024-01-15T04:25:35;4.4;72.4
78463;SHT31;67756;51.982;5.648;2024-01-15T04:28:06;4.5;71.7
78463;SHT31;67756;51.982;5.648;2024-01-15T04:30:35;4.5;71.5
78463;SHT31;67756;51.982;5.648;2024-01-15T04:33:04;4.5;70.9
78463;SHT31;67756;51.982;5.648;2024-01-15T04:35:34;4.5;70.9
78463;SHT31;67756;51.982;5.648;2024-01-15T04:38:03;4.5;71.2
78463;SHT31;67756;51.982;5.648;2024-01-15T04:40:31;4.6;71.6
78463;SHT31;67756;51.982;5.648;2024-01-15T04:43:00;4.6;71.8
78463;SHT31;67756;51.982;5.648;2024-01-15T04:45:29;4.6;71.2
78463;SHT31;67756;51.982;5.648;2024-01-15T04:48:00;4.6;71.4
78463;SHT31;67756;51.982;5.648;2024-01-15T04:50:28;4.6;71.0
78463;SHT31;67756;51.982;5.648;2024-01-15T04:52:57;4.6;71.1
78463;SHT31;67756;51.982;5.648;2024-01-15T04:55:25;4.6;70.9
78463;SHT31;67756;51.982;5.648;2024-01-15T04:57:54;4.5;70.8
78463;SHT31;67756;51.982;5.648;2024-01-15T05:00:23;4.5;70.8
78463;SHT31;67756;51.982;5.648;2024-01-15T05:02:51;4.5;70.8
78463;SHT31;67756;51.982;5.648;2024-01-15T05:05:20;4.4;70.8
78463;SHT31;67756;51.982;5.648;2024-01-15T05:07:51;4.4;70.9
78463;SHT31;67756;51.982;5.648;2024-01-15T05:10:19;4.4;70.9
78463;SHT31;67756;51.982;5.648;2024-01-15T05:12:48;4.3;71.5
78463;SHT31;67756;51.982;5.648;2024-01-15T05:15:16;4.3;71.6
78463;SHT31;67756;51.982;5.648;2024-01-15T05:17:45;4.3;72.1
78463;SHT31;67756;51.982;5.648;2024-01-15T05:20:13;4.3;72.0
78463;SHT31;67756;51.982;5.648;2024-01-15T05:22:42;4.3;72.4
78463;SHT31;67756;51.982;5.648;2024-01-15T05:25:10;4.2;72.3
78463;SHT31;67756;51.982;5.648;2024-01-15T05:27:39;4.2;72.2
78463;SHT31;67756;51.982;5.648;2024-01-15T05:30:08;4.2;72.6
78463;SHT31;67756;51.982;5.648;2024-01-15T05:32:37;4.2;72.9
78463;SHT31;67756;51.982;5.648;2024-01-15T05:35:06;4.2;73.2
78463;SHT31;67756;51.982;5.648;2024-01-15T05:37:35;4.1;73.4
78463;SHT31;67756;51.982;5.648;2024-01-15T05:40:04;4.1;73.7
78463;SHT31;67756;51.982;5.648;2024-01-15T05:42:34;4.1;73.7
78463;SHT31;67756;51.982;5.648;2024-01-15T05:45:03;4.1;74.0
78463;SHT31;67756;51.982;5.648;2024-01-15T05:47:32;4.1;74.1
78463;SHT31;67756;51.982;5.648;2024-01-15T05:50:02;4.1;74.4
78463;SHT31;67756;51.982;5.648;2024-01-15T05:52:31;4.1;74.7
78463;SHT31;67756;51.982;5.648;2024-01-15T05:55:02;4.1;74.6
78463;SHT31;67756;51.982;5.648;2024-01-15T05:57:31;4.1;74.4
78463;SHT31;67756;51.982;5.648;2024-01-15T06:00:00;4.1;74.6
78463;SHT31;67756;51.982;5.648;2024-01-15T06:02:29;4.1;74.5
78463;SHT31;67756;51.982;5.648;2024-01-15T06:04:57;4.1;74.6
78463;SHT31;67756;51.982;5.648;2024-01-15T06:07:28;4.1;74.5
78463;SHT31;67756;51.982;5.648;2024-01-15T06:09:59;4.1;74.6
78463;SHT31;67756;51.982;5.648;2024-01-15T06:12:27;4.1;74.6
78463;SHT31;67756;51.982;5.648;2024-01-15T06:14:56;4.1;74.8
78463;SHT31;67756;51.982;5.648;2024-01-15T06:17:25;4.2;74.6
78463;SHT31;67756;51.982;5.648;2024-01-15T06:19:54;4.2;74.4
78463;SHT31;67756;51.982;5.648;2024-01-15T06:22:23;4.2;74.5
78463;SHT31;67756;51.982;5.648;2024-01-15T06:24:53;4.2;74.7
78463;SHT31;67756;51.982;5.648;2024-01-15T06:27:22;4.2;74.9
78463;SHT31;67756;51.982;5.648;2024-01-15T06:29:50;4.2;75.0
78463;SHT31;67756;51.982;5.648;2024-01-15T06:32:19;4.2;74.7
78463;SHT31;67756;51.982;5.648;2024-01-15T06:34:48;4.2;74.6
78463;SHT31;67756;51.982;5.648;2024-01-15T06:37:16;4.2;74.7
78463;SHT31;67756;51.982;5.648;2024-01-15T06:39:46;4.3;74.2
78463;SHT31;67756;51.982;5.648;2024-01-15T06:42:15;4.3;73.4
78463;SHT31;67756;51.982;5.648;2024-01-15T06:44:43;4.3;73.1
78463;SHT31;67756;51.982;5.648;2024-01-15T06:47:14;4.2;73.4
78463;SHT31;67756;51.982;5.648;2024-01-15T06:49:43;4.2;73.7
78463;SHT31;67756;51.982;5.648;2024-01-15T06:52:14;4.2;74.1
78463;SHT31;67756;51.982;5.648;2024-01-15T06:54:42;4.1;74.3
78463;SHT31;67756;51.982;5.648;2024-01-15T06:57:11;4.1;74.5
78463;SHT31;67756;51.982;5.648;2024-01-15T06:59:40;4.1;74.9
78463;SHT31;67756;51.982;5.648;2024-01-15T07:02:08;4.1;75.1
78463;SHT31;67756;51.982;5.648;2024-01-15T07:04:37;4.0;75.2
78463;SHT31;67756;51.982;5.648;2024-01-15T07:07:06;4.1;75.4
78463;SHT31;67756;51.982;5.648;2024-01-15T07:09:35;4.1;75.5
78463;SHT31;67756;51.982;5.648;2024-01-15T07:12:04;4.1;75.3
78463;SHT31;67756;51.982;5.648;2024-01-15T07:14:32;4.1;75.3
78463;SHT31;67756;51.982;5.648;2024-01-15T07:17:02;4.1;74.9
78463;SHT31;67756;51.982;5.648;2024-01-15T07:19:31;4.1;74.9
78463;SHT31;67756;51.982;5.648;2024-01-15T07:22:00;4.1;75.2
78463;SHT31;67756;51.982;5.648;2024-01-15T07:24:28;4.1;75.6
78463;SHT31;67756;51.982;5.648;2024-01-15T07:26:57;4.1;75.2
78463;SHT31;67756;51.982;5.648;2024-01-15T07:29:26;4.1;75.1
78463;SHT31;67756;51.982;5.648;2024-01-15T07:31:55;4.1;75.1
78463;SHT31;67756;51.982;5.648;2024-01-15T07:34:24;4.1;75.1
78463;SHT31;67756;51.982;5.648;2024-01-15T07:36:53;4.1;75.2
78463;SHT31;67756;51.982;5.648;2024-01-15T07:39:22;4.1;75.1
78463;SHT31;67756;51.982;5.648;2024-01-15T07:41:51;4.1;75.3
78463;SHT31;67756;51.982;5.648;2024-01-15T07:44:22;4.1;75.1
78463;SHT31;67756;51.982;5.648;2024-01-15T07:46:51;4.1;74.8
78463;SHT31;67756;51.982;5.648;2024-01-15T07:49:19;4.1;74.4
78463;SHT31;67756;51.982;5.648;2024-01-15T07:51:50;4.0;74.3
78463;SHT31;67756;51.982;5.648;2024-01-15T07:54:19;4.0;74.6
78463;SHT31;67756;51.982;5.648;2024-01-15T07:56:58;4.0;74.8
78463;SHT31;67756;51.982;5.648;2024-01-15T07:59:29;3.9;75.2
78463;SHT31;67756;51.982;5.648;2024-01-15T08:01:59;3.9;75.7
78463;SHT31;67756;51.982;5.648;2024-01-15T08:04:29;3.9;76.8
78463;SHT31;67756;51.982;5.648;2024-01-15T08:06:59;4.0;76.9
78463;SHT31;67756;51.982;5.648;2024-01-15T08:09:29;4.0;76.1
78463;SHT31;67756;51.982;5.648;2024-01-15T08:11:58;4.0;75.6
78463;SHT31;67756;51.982;5.648;2024-01-15T08:14:27;4.0;75.6
78463;SHT31;67756;51.982;5.648;2024-01-15T08:16:55;4.1;74.8
78463;SHT31;67756;51.982;5.648;2024-01-15T08:19:24;4.1;75.0
78463;SHT31;67756;51.982;5.648;2024-01-15T08:21:53;4.0;74.9
78463;SHT31;67756;51.982;5.648;2024-01-15T08:24:22;4.0;74.7
78463;SHT31;67756;51.982;5.648;2024-01-15T08:26:50;4.0;75.0
78463;SHT31;67756;51.982;5.648;2024-01-15T08:29:21;4.1;75.6
78463;SHT31;67756;51.982;5.648;2024-01-15T08:31:51;4.1;75.3
78463;SHT31;67756;51.982;5.648;2024-01-15T08:34:19;4.1;75.2
78463;SHT31;67756;51.982;5.648;2024-01-15T08:36:48;4.1;75.1
78463;SHT31;67756;51.982;5.648;2024-01-15T08:39:16;4.1;75.4
78463;SHT31;67756;51.982;5.648;2024-01-15T08:41:45;4.1;75.8
78463;SHT31;67756;51.982;5.648;2024-01-15T08:44:14;4.1;75.2
78463;SHT31;67756;51.982;5.648;2024-01-15T08:46:43;4.1;75.1
78463;SHT31;67756;51.982;5.648;2024-01-15T08:49:11;4.1;74.9
78463;SHT31;67756;51.982;5.648;2024-01-15T08:51:40;4.1;74.8
78463;SHT31;67756;51.982;5.648;2024-01-15T08:54:08;4.1;75.1
78463;SHT31;67756;51.982;5.648;2024-01-15T08:56:40;4.1;75.5
78463;SHT31;67756;51.982;5.648;2024-01-15T08:59:08;4.1;75.3
78463;SHT31;67756;51.982;5.648;2024-01-15T09:01:38;4.1;76.1
78463;SHT31;67756;51.982;5.648;2024-01-15T09:04:06;4.1;75.5
78463;SHT31;67756;51.982;5.648;2024-01-15T09:06:35;4.1;75.4
78463;SHT31;67756;51.982;5.648;2024-01-15T09:09:03;4.1;75.5
78463;SHT31;67756;51.982;5.648;2024-01-15T09:11:32;4.1;76.4
78463;SHT31;67756;51.982;5.648;2024-01-15T09:14:01;4.1;75.9
78463;SHT31;67756;51.982;5.648;2024-01-15T09:16:30;4.1;75.9
78463;SHT31;67756;51.982;5.648;2024-01-15T09:18:59;4.2;75.6
78463;SHT31;67756;51.982;5.648;2024-01-15T09:21:28;4.2;75.8
78463;SHT31;67756;51.982;5.648;2024-01-15T09:23:56;4.2;75.4
78463;SHT31;67756;51.982;5.648;2024-01-15T09:26:25;4.2;75.2
78463;SHT31;67756;51.982;5.648;2024-01-15T09:28:54;4.2;75.3
78463;SHT31;67756;51.982;5.648;2024-01-15T09:31:22;4.2;76.2
78463;SHT31;67756;51.982;5.648;2024-01-15T09:33:50;4.3;75.6
78463;SHT31;67756;51.982;5.648;2024-01-15T09:36:22;4.3;75.1
78463;SHT31;67756;51.982;5.648;2024-01-15T09:38:51;4.3;74.5
78463;SHT31;67756;51.982;5.648;2024-01-15T09:41:20;4.2;74.3
78463;SHT31;67756;51.982;5.648;2024-01-15T09:43:49;4.2;74.2
78463;SHT31;67756;51.982;5.648;2024-01-15T09:46:18;4.2;74.4
78463;SHT31;67756;51.982;5.648;2024-01-15T09:48:47;4.2;74.7
78463;SHT31;67756;51.982;5.648;2024-01-15T09:51:16;4.2;74.3
78463;SHT31;67756;51.982;5.648;2024-01-15T09:53:47;4.1;74.7
78463;SHT31;67756;51.982;5.648;2024-01-15T09:56:17;4.1;75.0
78463;SHT31;67756;51.982;5.648;2024-01-15T09:58:46;4.1;75.2
78463;SHT31;67756;51.982;5.648;2024-01-15T10:01:17;4.1;76.1
78463;SHT31;67756;51.982;5.648;2024-01-15T10:03:47;4.1;76.8
78463;SHT31;67756;51.982;5.648;2024-01-15T10:06:17;4.1;76.4
78463;SHT31;67756;51.982;5.648;2024-01-15T10:08:48;4.1;76.6
78463;SHT31;67756;51.982;5.648;2024-01-15T10:11:17;4.2;75.9
78463;SHT31;67756;51.982;5.648;2024-01-15T10:13:46;4.2;75.7
78463;SHT31;67756;51.982;5.648;2024-01-15T10:16:18;4.2;75.5
78463;SHT31;67756;51.982;5.648;2024-01-15T10:18:48;4.2;75.4
78463;SHT31;67756;51.982;5.648;2024-01-15T10:21:19;4.2;75.4
78463;SHT31;67756;51.982;5.648;2024-01-15T10:23:48;4.2;74.9
78463;SHT31;67756;51.982;5.648;2024-01-15T10:26:17;4.2;75.4
78463;SHT31;67756;51.982;5.648;2024-01-15T10:28:50;4.1;75.9
78463;SHT31;67756;51.982;5.648;2024-01-15T10:31:19;4.1;78.0
78463;SHT31;67756;51.982;5.648;2024-01-15T10:33:49;4.2;78.7
78463;SHT31;67756;51.982;5.648;2024-01-15T10:36:18;4.3;79.7
78463;SHT31;67756;51.982;5.648;2024-01-15T10:38:46;4.6;78.3
78463;SHT31;67756;51.982;5.648;2024-01-15T10:41:17;4.8;76.0
78463;SHT31;67756;51.982;5.648;2024-01-15T10:43:46;4.9;75.5
78463;SHT31;67756;51.982;5.648;2024-01-15T10:46:15;5.1;75.8
78463;SHT31;67756;51.982;5.648;2024-01-15T10:48:43;5.3;74.9
78463;SHT31;67756;51.982;5.648;2024-01-15T10:51:13;5.4;72.0
78463;SHT31;67756;51.982;5.648;2024-01-15T10:53:42;5.5;70.7
78463;SHT31;67756;51.982;5.648;2024-01-15T10:56:12;5.6;70.1
78463;SHT31;67756;51.982;5.648;2024-01-15T10:58:43;5.5;69.0
78463;SHT31;67756;51.982;5.648;2024-01-15T11:01:13;5.5;68.3
78463;SHT31;67756;51.982;5.648;2024-01-15T11:03:42;5.4;69.1
78463;SHT31;67756;51.982;5.648;2024-01-15T11:06:19;5.3;69.6
78463;SHT31;67756;51.982;5.648;2024-01-15T11:08:49;5.3;71.1
78463;SHT31;67756;51.982;5.648;2024-01-15T11:11:18;5.2;71.5
78463;SHT31;67756;51.982;5.648;2024-01-15T11:13:49;5.2;72.2
78463;SHT31;67756;51.982;5.648;2024-01-15T11:16:18;5.2;72.6
78463;SHT31;67756;51.982;5.648;2024-01-15T11:19:03;5.2;73.6
78463;SHT31;67756;51.982;5.648;2024-01-15T11:21:43;5.2;72.4
78463;SHT31;67756;51.982;5.648;2024-01-15T11:26:09;5.2;72.1
78463;SHT31;67756;51.982;5.648;2024-01-15T11:28:49;5.2;71.8
78463;SHT31;67756;51.982;5.648;2024-01-15T11:31:17;5.2;72.1
78463;SHT31;67756;51.982;5.648;2024-01-15T11:33:50;5.2;71.3
78463;SHT31;67756;51.982;5.648;2024-01-15T11:36:18;5.2;71.3
78463;SHT31;67756;51.982;5.648;2024-01-15T11:38:47;5.2;72.3
78463;SHT31;67756;51.982;5.648;2024-01-15T11:41:18;5.2;71.8
78463;SHT31;67756;51.982;5.648;2024-01-15T11:43:47;5.2;71.7
78463;SHT31;67756;51.982;5.648;2024-01-15T11:46:18;5.2;71.5
78463;SHT31;67756;51.982;5.648;2024-01-15T11:48:54;5.2;71.2
78463;SHT31;67756;51.982;5.648;2024-01-15T11:51:28;5.2;71.1
78463;SHT31;67756;51.982;5.648;2024-01-15T11:54:03;5.2;71.0
78463;SHT31;67756;51.982;5.648;2024-01-15T11:56:33;5.1;73.2
78463;SHT31;67756;51.982;5.648;2024-01-15T11:59:03;5.2;75.1
78463;SHT31;67756;51.982;5.648;2024-01-15T12:01:33;5.6;72.9
78463;SHT31;67756;51.982;5.648;2024-01-15T12:04:04;5.9;69.7
78463;SHT31;67756;51.982;5.648;2024-01-15T12:06:33;6.0;69.6
78463;SHT31;67756;51.982;5.648;2024-01-15T12:09:09;6.1;68.8
78463;SHT31;67756;51.982;5.648;2024-01-15T12:11:45;6.2;67.3
78463;SHT31;67756;51.982;5.648;2024-01-15T12:14:16;6.2;66.6
78463;SHT31;67756;51.982;5.648;2024-01-15T12:16:46;6.2;68.0
78463;SHT31;67756;51.982;5.648;2024-01-15T12:19:16;6.2;66.9
78463;SHT31;67756;51.982;5.648;2024-01-15T12:21:44;6.2;66.6
78463;SHT31;67756;51.982;5.648;2024-01-15T12:24:14;6.2;67.6
78463;SHT31;67756;51.982;5.648;2024-01-15T12:26:43;6.1;68.8
78463;SHT31;67756;51.982;5.648;2024-01-15T12:29:12;6.1;68.5
78463;SHT31;67756;51.982;5.648;2024-01-15T12:31:42;6.1;67.9
78463;SHT31;67756;51.982;5.648;2024-01-15T12:34:11;6.1;67.4
78463;SHT31;67756;51.982;5.648;2024-01-15T12:36:40;6.0;68.7
78463;SHT31;67756;51.982;5.648;2024-01-15T12:39:13;6.0;68.9
78463;SHT31;67756;51.982;5.648;2024-01-15T12:41:42;6.0;69.7
78463;SHT31;67756;51.982;5.648;2024-01-15T12:44:11;6.0;70.7
78463;SHT31;67756;51.982;5.648;2024-01-15T12:46:40;6.1;69.1
78463;SHT31;67756;51.982;5.648;2024-01-15T12:49:09;6.2;68.1
78463;SHT31;67756;51.982;5.648;2024-01-15T12:51:38;6.2;67.3
78463;SHT31;67756;51.982;5.648;2024-01-15T12:54:08;6.2;67.3
78463;SHT31;67756;51.982;5.648;2024-01-15T12:56:38;6.2;67.2
78463;SHT31;67756;51.982;5.648;2024-01-15T12:59:07;6.1;67.6
78463;SHT31;67756;51.982;5.648;2024-01-15T13:01:36;6.1;68.4
78463;SHT31;67756;51.982;5.648;2024-01-15T13:04:05;6.1;68.8
78463;SHT31;67756;51.982;5.648;2024-01-15T13:06:35;6.0;68.0
78463;SHT31;67756;51.982;5.648;2024-01-15T13:09:04;5.9;66.8
78463;SHT31;67756;51.982;5.648;2024-01-15T13:11:34;5.8;67.7
78463;SHT31;67756;51.982;5.648;2024-01-15T13:14:03;5.7;66.7
78463;SHT31;67756;51.982;5.648;2024-01-15T13:16:31;5.6;68.0
78463;SHT31;67756;51.982;5.648;2024-01-15T13:19:00;5.5;68.3
78463;SHT31;67756;51.982;5.648;2024-01-15T13:21:30;5.4;68.6
78463;SHT31;67756;51.982;5.648;2024-01-15T13:23:58;5.4;68.7
78463;SHT31;67756;51.982;5.648;2024-01-15T13:26:27;5.3;68.8
78463;SHT31;67756;51.982;5.648;2024-01-15T13:28:55;5.3;68.7
78463;SHT31;67756;51.982;5.648;2024-01-15T13:31:24;5.2;69.0
78463;SHT31;67756;51.982;5.648;2024-01-15T13:33:53;5.2;69.2
78463;SHT31;67756;51.982;5.648;2024-01-15T13:36:23;5.1;69.6
78463;SHT31;67756;51.982;5.648;2024-01-15T13:38:51;5.1;69.8
78463;SHT31;67756;51.982;5.648;2024-01-15T13:41:21;5.0;70.2
78463;SHT31;67756;51.982;5.648;2024-01-15T13:43:54;5.0;69.9
78463;SHT31;67756;51.982;5.648;2024-01-15T13:46:25;5.1;69.7
78463;SHT31;67756;51.982;5.648;2024-01-15T13:48:56;5.1;68.7
78463;SHT31;67756;51.982;5.648;2024-01-15T13:51:24;5.2;68.4
78463;SHT31;67756;51.982;5.648;2024-01-15T13:53:55;5.2;69.0
78463;SHT31;67756;51.982;5.648;2024-01-15T13:56:25;5.3;69.1
78463;SHT31;67756;51.982;5.648;2024-01-15T13:58:58;5.3;69.4
78463;SHT31;67756;51.982;5.648;2024-01-15T14:01:27;5.4;69.6
78463;SHT31;67756;51.982;5.648;2024-01-15T14:03:55;5.4;68.8
78463;SHT31;67756;51.982;5.648;2024-01-15T14:06:24;5.5;69.2
78463;SHT31;67756;51.982;5.648;2024-01-15T14:08:53;5.5;68.2
78463;SHT31;67756;51.982;5.648;2024-01-15T14:11:21;5.5;68.6
78463;SHT31;67756;51.982;5.648;2024-01-15T14:13:51;5.4;68.6
78463;SHT31;67756;51.982;5.648;2024-01-15T14:16:21;5.4;68.5
78463;SHT31;67756;51.982;5.648;2024-01-15T14:18:49;5.3;68.8
78463;SHT31;67756;51.982;5.648;2024-01-15T14:21:18;5.3;69.0
78463;SHT31;67756;51.982;5.648;2024-01-15T14:23:46;5.2;69.0
78463;SHT31;67756;51.982;5.648;2024-01-15T14:26:15;5.2;69.4
78463;SHT31;67756;51.982;5.648;2024-01-15T14:28:43;5.2;70.3
78463;SHT31;67756;51.982;5.648;2024-01-15T14:31:12;5.2;71.1
78463;SHT31;67756;51.982;5.648;2024-01-15T14:33:41;5.2;70.7
78463;SHT31;67756;51.982;5.648;2024-01-15T14:36:10;5.1;70.3
78463;SHT31;67756;51.982;5.648;2024-01-15T14:38:40;5.1;70.0
78463;SHT31;67756;51.982;5.648;2024-01-15T14:41:09;5.1;70.5
78463;SHT31;67756;51.982;5.648;2024-01-15T14:43:37;5.0;70.6
78463;SHT31;67756;51.982;5.648;2024-01-15T14:46:06;5.0;70.4
78463;SHT31;67756;51.982;5.648;2024-01-15T14:48:34;5.0;70.0
78463;SHT31;67756;51.982;5.648;2024-01-15T14:51:03;5.0;68.0
78463;SHT31;67756;51.982;5.648;2024-01-15T14:53:32;4.9;67.7
78463;SHT31;67756;51.982;5.648;2024-01-15T14:56:02;4.9;67.6
78463;SHT31;67756;51.982;5.648;2024-01-15T14:58:32;4.8;68.0
78463;SHT31;67756;51.982;5.648;2024-01-15T15:01:00;4.7;68.2
78463;SHT31;67756;51.982;5.648;2024-01-15T15:03:30;4.7;69.2
78463;SHT31;67756;51.982;5.648;2024-01-15T15:05:59;4.7;69.6
78463;SHT31;67756;51.982;5.648;2024-01-15T15:08:28;4.6;70.5
78463;SHT31;67756;51.982;5.648;2024-01-15T15:10:56;4.6;71.1
78463;SHT31;67756;51.982;5.648;2024-01-15T15:13:25;4.7;71.8
78463;SHT31;67756;51.982;5.648;2024-01-15T15:15:54;4.7;71.7
78463;SHT31;67756;51.982;5.648;2024-01-15T15:18:23;4.7;71.7
78463;SHT31;67756;51.982;5.648;2024-01-15T15:20:52;4.7;71.7
78463;SHT31;67756;51.982;5.648;2024-01-15T15:23:22;4.7;72.1
78463;SHT31;67756;51.982;5.648;2024-01-15T15:25:51;4.7;71.9
78463;SHT31;67756;51.982;5.648;2024-01-15T15:28:20;4.7;71.8
78463;SHT31;67756;51.982;5.648;2024-01-15T15:30:48;4.8;71.9
78463;SHT31;67756;51.982;5.648;2024-01-15T15:33:17;4.8;72.1
78463;SHT31;67756;51.982;5.648;2024-01-15T15:35:46;4.8;71.2
78463;SHT31;67756;51.982;5.648;2024-01-15T15:38:17;4.9;71.4
78463;SHT31;67756;51.982;5.648;2024-01-15T15:40:46;4.9;70.7
78463;SHT31;67756;51.982;5.648;2024-01-15T15:43:15;4.9;70.9
78463;SHT31;67756;51.982;5.648;2024-01-15T15:45:45;4.9;70.9
78463;SHT31;67756;51.982;5.648;2024-01-15T15:48:13;4.9;70.4
78463;SHT31;67756;51.982;5.648;2024-01-15T15:50:42;4.9;69.9
78463;SHT31;67756;51.982;5.648;2024-01-15T15:53:11;4.9;70.9
78463;SHT31;67756;51.982;5.648;2024-01-15T15:55:39;4.9;70.6
78463;SHT31;67756;51.982;5.648;2024-01-15T15:58:10;4.9;70.4
78463;SHT31;67756;51.982;5.648;2024-01-15T16:00:38;4.9;70.7
78463;SHT31;67756;51.982;5.648;2024-01-15T16:03:09;4.9;70.3
78463;SHT31;67756;51.982;5.648;2024-01-15T16:05:37;4.9;71.1
78463;SHT31;67756;51.982;5.648;2024-01-15T16:08:08;4.9;70.5
78463;SHT31;67756;51.982;5.648;2024-01-15T16:10:38;4.9;70.0
78463;SHT31;67756;51.982;5.648;2024-01-15T16:13:08;4.9;70.1
78463;SHT31;67756;51.982;5.648;2024-01-15T16:15:38;4.9;70.1
78463;SHT31;67756;51.982;5.648;2024-01-15T16:18:09;5.0;69.4
78463;SHT31;67756;51.982;5.648;2024-01-15T16:20:38;5.0;69.0
78463;SHT31;67756;51.982;5.648;2024-01-15T16:23:08;4.9;68.8
78463;SHT31;67756;51.982;5.648;2024-01-15T16:25:36;4.9;69.6
78463;SHT31;67756;51.982;5.648;2024-01-15T16:28:06;4.9;69.7
78463;SHT31;67756;51.982;5.648;2024-01-15T16:30:34;4.9;69.7
78463;SHT31;67756;51.982;5.648;2024-01-15T16:33:03;4.9;69.3